M I D A S
Marine Information and Data Acquisition System
Tripno 1825 of the Zeeleeuw from 2009-12-14 07:26:12 to 2009-12-14 14:51:29
Back to CruiseResearch ActivitiesStationsMapUnderway DataData graphs

EquipmentUnitsComment
TimeDGPSUTC
LatitudeDGPSDM.mWGS84
LongitudeDGPSDM.mWGS84
TemperatureSBE03/SBE38deg celciusITS90
ConductivitySBE21S/mITS90
SalinitySBE21 Practical Salinity Units
ChlorophylAChelsea fluorimeterg/lCalibrated in Aceton
Missing or incorrect values are displayed as -999
Sea surface data collected by the RV Zeeleeuw from 2009-12-14 07:28:33 to 2009-12-14 15:00:18
Time Latitude Longitude Temperature Conductivity Salinity ChlorophylA
2009-12-14 07:29:42 51°13.675 2°55.897 14.2911 0.025229 0.153662 -0.7568
2009-12-14 07:30:42 51°13.695 2°55.805 14.3385 0.025537 0.155627 -0.7568
2009-12-14 07:31:41 51°13.699 2°55.743 14.3581 0.02564 0.156287 -0.7568
2009-12-14 07:32:41 51°13.713 2°55.746 14.1486 0.025229 0.153753 -0.7568
2009-12-14 07:33:42 51°13.7 2°55.74 14.4006 0.026052 0.15889 -0.791624
2009-12-14 07:34:41 51°13.752 2°55.697 14.1417 0.025331 0.154422 -0.791624
2009-12-14 07:35:38 51°13.853 2°55.616 14.1931 0.024714 0.150625 -0.7568
2009-12-14 07:36:39 51°13.981 2°55.517 14.1588 0.024508 0.149383 -0.791624
2009-12-14 07:37:39 51°14.118 2°55.41 14.2702 0.02492 0.151967 -0.791624
2009-12-14 07:38:38 51°14.246 2°55.268 14.2641 0.024817 0.151379 -0.7568
2009-12-14 07:39:39 51°14.355 2°55.051 14.0911 0.024199 0.147621 -0.791624
2009-12-14 07:40:38 51°14.479 2°54.848 14.1057 0.024302 0.148378 -0.7568
2009-12-14 07:41:38 51°14.631 2°54.677 14.0555 0.024405 0.149464 -0.791624
2009-12-14 07:42:39 51°14.79 2°54.514 14.0869 0.024097 0.147581 -0.791624
2009-12-14 07:43:39 51°14.952 2°54.37 14.0871 0.024097 0.147757 -0.7568
2009-12-14 07:44:39 51°15.109 2°54.223 14.1006 0.024302 0.14917 -0.7568
2009-12-14 07:45:38 51°15.266 2°54.082 14.1113 0.023994 0.147424 -0.791624
2009-12-14 07:46:39 51°15.428 2°53.936 14.0364 0.0242 0.148923 -0.7568
2009-12-14 07:47:39 51°15.588 2°53.791 14.0448 0.023891 0.147039 -0.791624
2009-12-14 07:48:39 51°15.748 2°53.649 14.0783 0.023994 0.147789 -0.791624
2009-12-14 07:49:38 51°15.906 2°53.511 14.03 0.024097 0.148576 -0.791624
2009-12-14 07:50:38 51°16.066 2°53.367 14.0564 0.023891 0.147301 -0.791624
2009-12-14 07:51:38 51°16.226 2°53.224 14.0513 0.023891 0.147366 -0.791624
2009-12-14 07:52:38 51°16.387 2°53.085 14.0484 0.023891 0.147481 -0.791624
2009-12-14 07:53:39 51°16.551 2°52.946 14.054 0.023891 0.147547 -0.791624
2009-12-14 07:54:38 51°16.707 2°52.81 14.0907 0.023891 0.147582 -0.7568
2009-12-14 07:55:39 51°16.866 2°52.673 14.0638 0.023891 0.147745 -0.791624
2009-12-14 07:56:38 51°17.02 2°52.542 14.028 0.023891 0.147775 -0.791624
2009-12-14 07:57:39 51°17.179 2°52.404 14.0559 0.023994 0.148425 -0.791624
2009-12-14 07:58:38 51°17.332 2°52.27 14.0631 0.023891 0.147805 -0.7568
2009-12-14 07:59:39 51°17.492 2°52.132 14.0345 0.023994 0.148485 -0.791624
2009-12-14 08:00:38 51°17.654 2°52.045 14.0667 0.023685 0.146693 -0.791624
2009-12-14 08:01:38 51°17.827 2°52.017 14.0603 0.023685 0.146717 -0.791624
2009-12-14 08:02:39 51°18.004 2°51.99 14.0968 0.023891 0.147987 -0.791624
2009-12-14 08:03:38 51°18.175 2°51.961 14.0945 0.023891 0.14813 -0.791624
2009-12-14 08:04:39 51°18.353 2°51.927 14.1067 0.023685 0.146841 -0.791624
2009-12-14 08:05:38 51°18.526 2°51.89 14.1012 0.023582 0.146222 -0.791624
2009-12-14 08:06:38 51°18.702 2°51.847 14.1064 0.023582 0.146302 -0.791624
2009-12-14 08:07:38 51°18.876 2°51.807 14.1302 0.023788 0.147621 -0.791624
2009-12-14 08:08:39 51°19.053 2°51.766 14.1172 0.023582 0.146408 -0.791624
2009-12-14 08:09:38 51°19.224 2°51.727 14.1099 0.023685 0.14713 -0.791624
2009-12-14 08:10:38 51°19.398 2°51.689 14.133 0.023582 0.146542 -0.791624
2009-12-14 08:11:39 51°19.575 2°51.644 14.1279 0.023582 0.146566 -0.791624
2009-12-14 08:12:38 51°19.746 2°51.601 14.1266 0.023788 0.147933 -0.791624
2009-12-14 08:13:39 51°19.925 2°51.566 14.1263 0.023479 0.146054 -0.791624
2009-12-14 08:14:38 51°20.099 2°51.53 14.1677 0.023582 0.146714 -0.791624
2009-12-14 08:15:39 51°20.277 2°51.491 14.1787 0.023582 0.146815 -0.791624
2009-12-14 08:16:38 51°20.451 2°51.451 14.1709 0.023479 0.146173 -0.791624
2009-12-14 08:17:39 51°20.618 2°51.345 14.1785 0.023479 0.146217 -0.791624
2009-12-14 08:18:38 51°20.774 2°51.202 14.1962 0.023479 0.146321 -0.791624
2009-12-14 08:19:38 51°20.934 2°51.055 14.1859 0.023582 0.147003 -0.791624
2009-12-14 08:20:39 51°21.1 2°50.914 14.1927 0.023479 0.146422 -0.791624
2009-12-14 08:21:38 51°21.265 2°50.802 14.2255 0.023376 0.145778 -0.791624
2009-12-14 08:22:38 51°21.434 2°50.687 14.2478 0.023376 0.145758 -0.791624
2009-12-14 08:23:38 51°21.61 2°50.626 14.2518 0.023685 0.147752 -0.791624
2009-12-14 08:24:38 51°21.79 2°50.618 14.2564 0.023376 0.14582 -0.791624
2009-12-14 08:25:38 51°21.969 2°50.617 14.2828 0.023376 0.145847 -0.791624
2009-12-14 08:26:39 51°22.152 2°50.614 14.2952 0.023376 0.145853 -0.791624
2009-12-14 08:27:38 51°22.33 2°50.61 14.2889 0.023479 0.146562 -0.791624
2009-12-14 08:28:38 51°22.51 2°50.604 14.2819 0.023376 0.14596 -0.791624
2009-12-14 08:29:38 51°22.692 2°50.594 14.2847 0.023479 0.146643 -0.791624
2009-12-14 08:30:38 51°22.874 2°50.585 14.3249 0.023479 0.146631 -0.791624
2009-12-14 08:31:39 51°23.056 2°50.581 14.3079 0.023582 0.147303 -0.826448
2009-12-14 08:32:39 51°23.233 2°50.572 14.3416 0.023685 0.147969 -0.826448
2009-12-14 08:33:39 51°23.41 2°50.563 14.3672 0.023788 0.148684 -0.791624
2009-12-14 08:34:38 51°23.585 2°50.553 14.3719 0.023685 0.14803 -0.791624
2009-12-14 08:35:38 51°23.762 2°50.544 14.3551 0.023479 0.146727 -0.826448
2009-12-14 08:36:38 51°23.941 2°50.537 14.3689 0.023479 0.146763 -0.791624
2009-12-14 08:37:38 51°24.119 2°50.523 14.3868 0.023479 0.146814 -0.791624
2009-12-14 08:38:38 51°24.296 2°50.511 14.41 0.023376 0.146126 -0.826448
2009-12-14 08:39:38 51°24.475 2°50.501 14.3976 0.023479 0.146844 -0.791624
2009-12-14 08:40:39 51°24.657 2°50.49 14.4283 0.023376 0.146159 -0.826448
2009-12-14 08:41:38 51°24.835 2°50.486 14.4424 0.023582 0.147487 -0.826448
2009-12-14 08:42:38 51°25.015 2°50.479 14.4575 0.023376 0.146222 -0.826448
2009-12-14 08:43:38 51°25.194 2°50.467 14.4458 0.023891 0.149508 -0.826448
2009-12-14 08:44:38 51°25.375 2°50.455 14.4464 0.023582 0.147508 -0.826448
2009-12-14 08:45:39 51°25.558 2°50.447 14.4687 0.023479 0.14688 -0.826448
2009-12-14 08:46:38 51°25.737 2°50.442 14.4898 0.023788 0.148843 -0.826448
2009-12-14 08:47:38 51°25.918 2°50.439 14.503 0.023582 0.147547 -0.826448
2009-12-14 08:48:38 51°26.099 2°50.435 14.5225 0.023685 0.14823 -0.826448
2009-12-14 08:49:39 51°26.283 2°50.432 14.5453 0.023479 0.146916 -0.826448
2009-12-14 08:50:39 51°26.464 2°50.43 14.5542 0.023582 0.147541 -0.826448
2009-12-14 08:51:39 51°26.645 2°50.424 14.5271 0.023685 0.14826 -0.826448
2009-12-14 08:52:38 51°26.824 2°50.417 14.5591 0.023788 0.148888 -0.826448
2009-12-14 08:53:39 51°27.007 2°50.412 14.5644 0.023582 0.147622 -0.826448
2009-12-14 08:54:37 51°27.179 2°50.402 14.5822 0.023788 0.148882 -0.791624
2009-12-14 08:55:38 51°27.36 2°50.393 14.6087 0.023685 0.148254 -0.826448
2009-12-14 08:56:38 51°27.539 2°50.387 14.6036 0.023685 0.148318 -0.826448
2009-12-14 08:57:38 51°27.719 2°50.381 14.5968 0.023582 0.147701 -0.826448
2009-12-14 08:58:38 51°27.901 2°50.373 14.6471 0.023685 0.148309 -0.826448
2009-12-14 08:59:38 51°28.083 2°50.374 14.6754 0.023788 0.149007 -0.826448
2009-12-14 09:00:39 51°28.27 2°50.373 14.6734 0.023582 0.147674 -0.826448
2009-12-14 09:01:38 51°28.451 2°50.369 14.6682 0.023582 0.147728 -0.826448
2009-12-14 09:02:39 51°28.637 2°50.37 14.6806 0.023891 0.149704 -0.826448
2009-12-14 09:03:38 51°28.818 2°50.373 14.6838 0.023685 0.148412 -0.826448
2009-12-14 09:04:38 51°29.001 2°50.379 14.7267 0.023891 0.149732 -0.826448
2009-12-14 09:05:38 51°29.184 2°50.384 14.7417 0.023479 0.147147 -0.826448
2009-12-14 09:06:38 51°29.366 2°50.399 14.7227 0.023685 0.148452 -0.826448
2009-12-14 09:07:38 51°29.516 2°50.551 14.7529 0.0242 0.151775 -0.826448
2009-12-14 09:08:38 51°29.606 2°50.81 14.749 0.023994 0.150481 -0.826448
2009-12-14 09:09:39 51°29.672 2°51.101 14.7816 0.0242 0.151781 -0.826448
2009-12-14 09:10:38 51°29.734 2°51.385 14.8203 0.023994 0.150543 -0.826448
2009-12-14 09:11:38 51°29.802 2°51.671 14.8184 0.0242 0.151859 -0.826448
2009-12-14 09:12:38 51°29.876 2°51.952 14.81 0.024405 0.153179 -0.826448
2009-12-14 09:13:39 51°29.956 2°52.233 14.8416 0.023994 0.150556 -0.826448
2009-12-14 09:14:38 51°30.025 2°52.514 14.8371 0.023891 0.149876 -0.826448
2009-12-14 09:15:38 51°30.094 2°52.8 14.8788 0.024508 0.153837 -0.826448
2009-12-14 09:16:39 51°30.166 2°53.09 14.8867 0.023891 0.149898 -0.826448
2009-12-14 09:17:39 51°30.237 2°53.375 14.8707 0.024508 0.153901 -0.826448
2009-12-14 09:18:39 51°30.31 2°53.661 14.9044 0.024097 0.151263 -0.826448
2009-12-14 09:19:38 51°30.384 2°53.94 14.9168 0.0242 0.151944 -0.826448
2009-12-14 09:20:38 51°30.458 2°54.226 14.9149 0.024302 0.152602 -0.826448
2009-12-14 09:21:38 51°30.532 2°54.513 14.9581 0.024097 0.151326 -0.826448
2009-12-14 09:22:38 51°30.604 2°54.801 14.9548 0.024611 0.154605 -0.826448
2009-12-14 09:23:38 51°30.678 2°55.089 14.9841 0.024508 0.153949 -0.826448
2009-12-14 09:24:38 51°30.754 2°55.374 14.9964 0.0242 0.151991 -0.826448
2009-12-14 09:25:38 51°30.827 2°55.661 14.9959 0.024302 0.152716 -0.826448
2009-12-14 09:26:38 51°30.9 2°55.946 15.0254 0.024405 0.153356 -0.826448
2009-12-14 09:27:38 51°30.974 2°56.233 15.033 0.024097 0.151454 -0.826448
2009-12-14 09:28:38 51°31.049 2°56.52 15.0298 0.023994 0.150757 -0.826448
2009-12-14 09:29:38 51°31.126 2°56.808 15.0617 0.023994 0.150745 -0.826448
2009-12-14 09:30:38 51°31.201 2°57.096 15.0723 0.0242 0.152119 -0.826448
2009-12-14 09:31:38 51°31.274 2°57.387 15.07 0.023994 0.150798 -0.826448
2009-12-14 09:32:38 51°31.375 2°57.648 15.1206 0.024508 0.15406 -0.826448
2009-12-14 09:33:38 51°31.528 2°57.831 15.1099 0.023891 0.150129 -0.826448
2009-12-14 09:34:37 51°31.682 2°58.005 15.1056 0.023994 0.150857 -0.826448
2009-12-14 09:35:38 51°31.833 2°58.206 15.1247 0.023788 0.149609 -0.826448
2009-12-14 09:36:38 51°31.979 2°58.409 15.1328 0.0242 0.152248 -0.826448
2009-12-14 09:37:38 51°32.123 2°58.616 15.1624 0.024405 0.153553 -0.826448
2009-12-14 09:38:38 51°32.268 2°58.822 15.167 0.023994 0.150991 -0.826448
2009-12-14 09:39:37 51°32.41 2°59.024 15.1851 0.023891 0.150343 -0.826448
2009-12-14 09:40:38 51°32.558 2°59.234 15.1859 0.023994 0.151 -0.826448
2009-12-14 09:41:38 51°32.703 2°59.434 15.2261 0.024303 0.153035 -0.826448
2009-12-14 09:42:38 51°32.876 2°59.455 15.2693 0.025126 0.158221 -0.826448
2009-12-14 09:43:39 51°32.981 2°59.238 15.2314 0.023685 0.149018 -0.826448
2009-12-14 09:44:39 51°33.044 2°58.982 15.2651 0.023479 0.147708 -0.826448
2009-12-14 09:45:39 51°33.118 2°58.73 15.2733 0.023479 0.147751 -0.826448
2009-12-14 09:46:38 51°33.208 2°58.494 15.2706 0.023479 0.147812 -0.826448
2009-12-14 09:47:38 51°33.315 2°58.27 15.2916 0.023891 0.150471 -0.826448
2009-12-14 09:48:38 51°33.424 2°58.047 15.3036 0.024097 0.151751 -0.826448
2009-12-14 09:49:38 51°33.535 2°57.821 15.2836 0.023582 0.148533 -0.826448
2009-12-14 09:50:38 51°33.647 2°57.593 15.3295 0.023582 0.148533 -0.826448
2009-12-14 09:51:38 51°33.759 2°57.364 15.3588 0.023582 0.148573 -0.826448
2009-12-14 09:52:38 51°33.869 2°57.133 15.3412 0.023273 0.146631 -0.826448
2009-12-14 09:53:38 51°33.978 2°56.902 15.3528 0.023788 0.149913 -0.826448
2009-12-14 09:54:38 51°34.09 2°56.674 15.3563 0.023273 0.146625 -0.826448
2009-12-14 09:55:39 51°34.204 2°56.441 15.3831 0.023479 0.147983 -0.826448
2009-12-14 09:56:38 51°34.304 2°56.207 15.4043 0.023685 0.149335 -0.826448
2009-12-14 09:57:38 51°34.352 2°55.936 15.4854 0.024714 0.155994 -0.826448
2009-12-14 09:58:38 51°34.321 2°55.665 15.4484 0.023376 0.147365 -0.826448
2009-12-14 09:59:38 51°34.251 2°55.409 15.4482 0.023376 0.147404 -0.826448
2009-12-14 10:00:38 51°34.161 2°55.168 15.4774 0.023788 0.150043 -0.826448
2009-12-14 10:01:38 51°34.054 2°54.947 15.4214 0.023891 0.15068 -0.826448
2009-12-14 10:02:38 51°33.939 2°54.737 15.514 0.024405 0.153977 -0.826448
2009-12-14 10:03:38 51°33.824 2°54.527 15.5278 0.025126 0.158574 -0.826448
2009-12-14 10:04:38 51°33.709 2°54.314 15.565 0.02492 0.157245 -0.826448
2009-12-14 10:05:38 51°33.595 2°54.103 15.5409 0.023788 0.149993 -0.826448
2009-12-14 10:06:38 51°33.483 2°53.89 15.5303 0.023685 0.149369 -0.826448
2009-12-14 10:07:39 51°33.375 2°53.666 15.5756 0.024303 0.153327 -0.826448
2009-12-14 10:08:38 51°33.278 2°53.445 15.5825 0.023994 0.151341 -0.826448
2009-12-14 10:09:38 51°33.184 2°53.214 15.5949 0.0242 0.152665 -0.826448
2009-12-14 10:10:38 51°33.088 2°52.985 15.6439 0.023994 0.15136 -0.826448
2009-12-14 10:11:38 51°32.991 2°52.757 15.6107 0.023376 0.147404 -0.826448
2009-12-14 10:12:38 51°32.892 2°52.531 15.5977 0.0242 0.152703 -0.826448
2009-12-14 10:13:38 51°32.795 2°52.306 15.6606 0.024611 0.155353 -0.826448
2009-12-14 10:14:38 51°32.699 2°52.078 15.6418 0.025023 0.157977 -0.826448
2009-12-14 10:15:38 51°32.601 2°51.853 15.6674 0.024817 0.156673 -0.826448
2009-12-14 10:16:38 51°32.504 2°51.627 15.6957 0.025126 0.158637 -0.791624
2009-12-14 10:17:38 51°32.409 2°51.397 15.6745 0.024303 0.153365 -0.826448
2009-12-14 10:18:38 51°32.315 2°51.168 15.7283 0.0242 0.152738 -0.826448
2009-12-14 10:19:38 51°32.22 2°50.939 15.7194 0.024508 0.154765 -0.791624
2009-12-14 10:20:39 51°32.124 2°50.706 15.726 0.023685 0.149484 -0.791624
2009-12-14 10:21:38 51°32.029 2°50.486 15.7729 0.024714 0.156094 -0.826448
2009-12-14 10:22:38 51°31.931 2°50.264 15.7583 0.024097 0.152132 -0.826448
2009-12-14 10:23:38 51°31.833 2°50.04 15.8067 0.025126 0.158776 -0.826448
2009-12-14 10:24:39 51°31.738 2°49.809 15.8303 0.024817 0.156794 -0.826448
2009-12-14 10:25:38 51°31.647 2°49.587 15.8199 0.024097 0.15218 -0.826448
2009-12-14 10:26:38 51°31.552 2°49.36 15.8489 0.024097 0.152196 -0.826448
2009-12-14 10:27:38 51°31.452 2°49.146 15.8431 0.02492 0.157501 -0.826448
2009-12-14 10:28:38 51°31.343 2°48.942 15.8454 0.023582 0.148914 -0.826448
2009-12-14 10:29:38 51°31.234 2°48.737 15.8601 0.023479 0.148258 -0.826448
2009-12-14 10:30:38 51°31.128 2°48.528 15.8647 0.023788 0.150264 -0.826448
2009-12-14 10:31:38 51°31.023 2°48.321 15.8618 0.023479 0.148277 -0.826448
2009-12-14 10:32:38 51°30.92 2°48.111 15.9141 0.024303 0.153595 -0.826448
2009-12-14 10:33:38 51°30.817 2°47.901 15.9301 0.0242 0.153005 -0.826448
2009-12-14 10:34:38 51°30.711 2°47.695 15.9343 0.023994 0.151697 -0.826448
2009-12-14 10:35:38 51°30.606 2°47.488 15.9323 0.023891 0.151021 -0.826448
2009-12-14 10:36:38 51°30.504 2°47.279 15.9385 0.023582 0.148989 -0.791624
2009-12-14 10:37:38 51°30.506 2°47.038 15.9669 0.024097 0.152414 -0.791624
2009-12-14 10:38:38 51°30.669 2°46.949 15.9715 0.024817 0.157092 -0.826448
2009-12-14 10:39:38 51°30.867 2°46.971 15.9857 0.024405 0.154507 -0.826448
2009-12-14 10:40:39 51°31.071 2°47.001 16.0136 0.024611 0.155843 -0.826448
2009-12-14 10:41:38 51°31.27 2°47.034 16.0099 0.0242 0.153225 -0.826448
2009-12-14 10:42:38 51°31.472 2°47.072 16.0352 0.024714 0.156578 -0.826448
2009-12-14 10:43:39 51°31.678 2°47.113 16.0553 0.024303 0.153906 -0.826448
2009-12-14 10:44:39 51°31.879 2°47.156 16.0587 0.024714 0.156587 -0.826448
2009-12-14 10:45:38 51°32.078 2°47.196 16.0721 0.02492 0.157923 -0.826448
2009-12-14 10:46:38 51°32.28 2°47.234 16.0953 0.024817 0.157253 -0.791624
2009-12-14 10:47:38 51°32.483 2°47.262 16.0979 0.024611 0.155938 -0.791624
2009-12-14 10:48:38 51°32.686 2°47.291 16.0937 0.024303 0.153938 -0.791624
2009-12-14 10:49:38 51°32.889 2°47.32 16.1428 0.025126 0.159302 -0.791624
2009-12-14 10:50:39 51°33.095 2°47.331 16.1461 0.024405 0.154652 -0.791624
2009-12-14 10:51:39 51°33.297 2°47.337 16.1669 0.024714 0.156706 -0.791624
2009-12-14 10:52:39 51°33.499 2°47.342 16.1592 0.024817 0.157346 -0.791624
2009-12-14 10:53:38 51°33.699 2°47.35 16.1495 0.023994 0.152093 -0.791624
2009-12-14 10:54:39 51°33.904 2°47.352 16.1787 0.024508 0.155389 -0.791624
2009-12-14 10:55:37 51°34.099 2°47.354 16.2131 0.024611 0.156124 -0.791624
2009-12-14 10:56:39 51°34.309 2°47.361 16.2381 0.024817 0.157428 -0.791624
2009-12-14 10:57:37 51°34.506 2°47.348 16.2291 0.024508 0.155445 -0.791624
2009-12-14 10:58:38 51°34.711 2°47.323 16.2489 0.024508 0.155438 -0.791624
2009-12-14 10:59:39 51°34.917 2°47.3 16.2669 0.024405 0.154808 -0.791624
2009-12-14 11:00:39 51°35.119 2°47.276 16.2685 0.024303 0.154141 -0.791624
2009-12-14 11:01:39 51°35.322 2°47.259 16.2662 0.024303 0.15417 -0.791624
2009-12-14 11:02:37 51°35.516 2°47.27 16.2681 0.025023 0.158839 -0.791624
2009-12-14 11:03:38 51°35.702 2°47.415 16.3241 0.025126 0.159486 -0.791624
2009-12-14 11:04:37 51°35.876 2°47.586 16.3472 0.024817 0.157504 -0.791624
2009-12-14 11:05:39 51°36.059 2°47.772 16.3546 0.024405 0.154863 -0.791624
2009-12-14 11:06:37 51°36.23 2°47.941 16.3376 0.02492 0.158238 -0.791624
2009-12-14 11:07:39 51°36.411 2°48.129 16.3635 0.024508 0.155621 -0.791624
2009-12-14 11:08:38 51°36.584 2°48.31 16.3741 0.024817 0.157593 -0.791624
2009-12-14 11:09:39 51°36.765 2°48.491 16.3917 0.024611 0.156223 -0.791624
2009-12-14 11:10:39 51°36.943 2°48.668 16.3861 0.024508 0.15566 -0.791624
2009-12-14 11:11:37 51°37.116 2°48.843 16.3831 0.0242 0.153649 -0.791624
2009-12-14 11:12:39 51°37.299 2°49.032 16.4109 0.023994 0.152325 -0.791624
2009-12-14 11:13:38 51°37.475 2°49.209 16.4284 0.024508 0.155634 -0.791624
2009-12-14 11:14:39 51°37.657 2°49.393 16.4477 0.024405 0.15497 -0.791624
2009-12-14 11:15:37 51°37.83 2°49.565 16.4486 0.024405 0.154986 -0.791624
2009-12-14 11:16:39 51°38.016 2°49.748 16.4702 0.024817 0.157729 -0.791624
2009-12-14 11:17:39 51°38.197 2°49.926 16.4871 0.024714 0.157055 -0.791624
2009-12-14 11:18:39 51°38.378 2°50.104 16.4695 0.024508 0.155716 -0.791624
2009-12-14 11:19:38 51°38.556 2°50.278 16.5159 0.024303 0.154377 -0.791624
2009-12-14 11:20:38 51°38.736 2°50.454 16.4954 0.024405 0.155061 -0.791624
2009-12-14 11:21:38 51°38.915 2°50.633 16.515 0.024303 0.154458 -0.791624
2009-12-14 11:22:38 51°39.096 2°50.808 16.5358 0.024303 0.154523 -0.791624
2009-12-14 11:23:39 51°39.28 2°50.984 16.5414 0.024405 0.155155 -0.791624
2009-12-14 11:24:38 51°39.458 2°51.15 16.5692 0.024303 0.154504 -0.791624
2009-12-14 11:25:39 51°39.596 2°51.387 16.5767 0.024097 0.153152 -0.791624
2009-12-14 11:26:37 51°39.597 2°51.687 16.5567 0.023685 0.150518 -0.791624
2009-12-14 11:27:39 51°39.501 2°51.949 16.6028 0.024508 0.155853 -0.791624
2009-12-14 11:28:39 51°39.37 2°52.153 16.6257 0.024405 0.155162 -0.791624
2009-12-14 11:29:38 51°39.236 2°52.347 16.6487 0.024817 0.157819 -0.791624
2009-12-14 11:30:38 51°39.099 2°52.542 16.6221 0.024303 0.154478 -0.791624
2009-12-14 11:31:38 51°38.963 2°52.739 16.6841 0.024714 0.157147 -0.791624
2009-12-14 11:32:38 51°38.827 2°52.937 16.6912 0.024303 0.154488 -0.791624
2009-12-14 11:33:38 51°38.691 2°53.133 16.6692 0.023788 0.151147 -0.791624
2009-12-14 11:34:39 51°38.555 2°53.336 16.6678 0.024097 0.153162 -0.791624
2009-12-14 11:35:37 51°38.426 2°53.528 16.7045 0.0242 0.153836 -0.791624
2009-12-14 11:36:38 51°38.287 2°53.728 16.7263 0.023891 0.151872 -0.791624
2009-12-14 11:37:39 51°38.15 2°53.931 16.7425 0.023994 0.152565 -0.791624
2009-12-14 11:38:37 51°38.017 2°54.121 16.7191 0.023788 0.15121 -0.7568
2009-12-14 11:39:39 51°37.879 2°54.33 16.7548 0.024097 0.153287 -0.791624
2009-12-14 11:40:37 51°37.749 2°54.522 16.7473 0.023994 0.152594 -0.7568
2009-12-14 11:41:38 51°37.614 2°54.726 16.7995 0.025126 0.159971 -0.7568
2009-12-14 11:42:37 51°37.479 2°54.913 16.7463 0.024817 0.157949 -0.791624
2009-12-14 11:43:39 51°37.322 2°54.915 16.8011 0.024508 0.155981 -0.7568
2009-12-14 11:44:37 51°37.207 2°54.755 16.8577 0.024611 0.156634 -0.7568
2009-12-14 11:45:39 51°37.119 2°54.524 16.8346 0.024508 0.156027 -0.7568
2009-12-14 11:46:38 51°37.041 2°54.295 16.8437 0.024508 0.156011 -0.7568
2009-12-14 11:47:37 51°36.957 2°54.071 16.8588 0.024817 0.158012 -0.7568
2009-12-14 11:48:39 51°36.868 2°53.838 16.8219 0.023788 0.151331 -0.7568
2009-12-14 11:49:37 51°36.787 2°53.615 16.8506 0.024508 0.156011 -0.791624
2009-12-14 11:50:37 51°36.702 2°53.388 16.9045 0.025229 0.160658 -0.7568
2009-12-14 11:51:37 51°36.619 2°53.156 16.9069 0.025229 0.160654 -0.7568
2009-12-14 11:52:38 51°36.533 2°52.924 16.8853 0.02492 0.158685 -0.7568
2009-12-14 11:53:38 51°36.447 2°52.697 16.9301 0.025435 0.162022 -0.7568
2009-12-14 11:54:38 51°36.364 2°52.467 16.9003 0.0242 0.154007 -0.7568
2009-12-14 11:55:38 51°36.281 2°52.237 16.9329 0.023788 0.151363 -0.7568
2009-12-14 11:56:38 51°36.196 2°52.006 16.9386 0.024303 0.154705 -0.7568
2009-12-14 11:57:38 51°36.111 2°51.779 16.9626 0.023479 0.149387 -0.7568
2009-12-14 11:58:38 51°36.023 2°51.556 16.9623 0.025023 0.159409 -0.7568
2009-12-14 11:59:38 51°35.878 2°51.47 16.9962 0.024303 0.154702 -0.7568
2009-12-14 12:00:38 51°35.712 2°51.488 16.9954 0.023788 0.151401 -0.7568
2009-12-14 12:01:38 51°35.547 2°51.543 16.9901 0.023582 0.15009 -0.7568
2009-12-14 12:02:38 51°35.381 2°51.604 17.0028 0.023994 0.152767 -0.7568
2009-12-14 12:03:38 51°35.214 2°51.614 17.0263 0.024714 0.157505 -0.7568
2009-12-14 12:04:38 51°35.048 2°51.58 17.0468 0.024508 0.156136 -0.7568
2009-12-14 12:05:38 51°34.883 2°51.541 17.0512 0.025126 0.160177 -0.7568
2009-12-14 12:06:38 51°34.72 2°51.501 17.0514 0.025435 0.162142 -0.7568
2009-12-14 12:07:38 51°34.555 2°51.504 17.1461 0.025743 0.164215 -0.7568
2009-12-14 12:08:38 51°34.435 2°51.712 17.0876 0.023479 0.149456 -0.7568
2009-12-14 12:09:38 51°34.316 2°51.939 17.0486 0.024611 0.156868 -0.7568
2009-12-14 12:10:38 51°34.186 2°52.149 17.0889 0.024405 0.155486 -0.7568
2009-12-14 12:11:38 51°34.053 2°52.357 17.1208 0.025229 0.160858 -0.7568
2009-12-14 12:12:38 51°33.921 2°52.563 17.1387 0.025743 0.164191 -0.721976
2009-12-14 12:13:38 51°33.793 2°52.775 17.1465 0.025435 0.162187 -0.7568
2009-12-14 12:14:38 51°33.664 2°52.985 17.147 0.025023 0.159537 -0.7568
2009-12-14 12:15:38 51°33.575 2°53.231 17.2111 0.025126 0.160265 -0.617504
2009-12-14 12:16:38 51°33.676 2°53.486 17.1561 0.023582 0.15021 -0.652328
2009-12-14 12:17:38 51°33.843 2°53.689 17.1765 0.023376 0.14902 -0.687152
2009-12-14 12:18:38 51°34.014 2°53.887 17.1697 0.023788 0.151793 -0.687152
2009-12-14 12:19:38 51°34.184 2°54.088 17.1861 0.023582 0.15045 -0.617504
2009-12-14 12:20:38 51°34.355 2°54.289 17.193 0.023891 0.152486 -0.513031
2009-12-14 12:21:38 51°34.526 2°54.489 17.1995 0.023788 0.1518 -0.408559
2009-12-14 12:22:38 51°34.697 2°54.686 17.1981 0.023685 0.151133 -0.338911
2009-12-14 12:23:38 51°34.863 2°54.896 17.2173 0.025229 0.161199 -0.269263
2009-12-14 12:24:38 51°34.99 2°55.161 17.2374 0.025332 0.161841 -0.199615
2009-12-14 12:25:38 51°35.09 2°55.454 17.2353 0.025023 0.159794 -0.164791
2009-12-14 12:26:38 51°35.19 2°55.75 17.2485 0.024508 0.156436 -0.129967
2009-12-14 12:27:38 51°35.29 2°56.044 17.2581 0.024611 0.157097 -0.060319
2009-12-14 12:28:38 51°35.395 2°56.337 17.2544 0.025023 0.159858 -0.025495
2009-12-14 12:29:38 51°35.506 2°56.623 17.3126 0.024714 0.157809 0.044153
2009-12-14 12:30:38 51°35.634 2°56.891 17.2843 0.024097 0.153801 0.078977
2009-12-14 12:31:38 51°35.767 2°57.153 17.3027 0.024303 0.155304 0.078977
2009-12-14 12:32:38 51°35.907 2°57.407 17.3003 0.024303 0.155248 0.113802
2009-12-14 12:33:38 51°36.044 2°57.661 17.3166 0.024508 0.156539 0.148626
2009-12-14 12:34:38 51°36.18 2°57.919 17.3437 0.024097 0.15386 0.18345
2009-12-14 12:35:38 51°36.315 2°58.177 17.3111 0.0242 0.154515 0.218274
2009-12-14 12:36:38 51°36.345 2°58.477 17.3307 0.024508 0.156542 0.253098
2009-12-14 12:37:38 51°36.211 2°58.557 17.3455 0.02564 0.163985 0.253098
2009-12-14 12:38:38 51°36.047 2°58.519 17.3927 0.025229 0.161227 0.287922
2009-12-14 12:39:38 51°35.881 2°58.486 17.3858 0.024817 0.158557 0.287922
2009-12-14 12:40:38 51°35.715 2°58.451 17.3987 0.024714 0.157869 0.322746
2009-12-14 12:41:38 51°35.548 2°58.416 17.3861 0.026875 0.172021 0.35757
2009-12-14 12:42:38 51°35.379 2°58.419 17.4069 0.024405 0.155877 0.35757
2009-12-14 12:43:38 51°35.21 2°58.431 17.399 0.024097 0.15387 0.35757
2009-12-14 12:44:38 51°35.041 2°58.44 17.4539 0.025743 0.164582 0.392394
2009-12-14 12:45:38 51°34.872 2°58.483 17.4693 0.025846 0.165273 0.392394
2009-12-14 12:46:38 51°34.706 2°58.549 17.4451 0.02564 0.163856 0.427218
2009-12-14 12:47:38 51°34.539 2°58.615 17.4226 0.025126 0.160486 0.427218
2009-12-14 12:48:38 51°34.374 2°58.694 17.4806 0.024508 0.156502 0.462042
2009-12-14 12:49:38 51°34.209 2°58.781 17.4772 0.024817 0.158544 0.462042
2009-12-14 12:50:38 51°34.045 2°58.866 17.5049 0.025023 0.159834 0.462042
2009-12-14 12:51:38 51°33.88 2°58.948 17.5 0.025229 0.161175 0.462042
2009-12-14 12:52:38 51°33.717 2°59.028 17.5177 0.024303 0.155189 0.462042
2009-12-14 12:53:38 51°33.554 2°59.11 17.5283 0.025023 0.159885 0.496866
2009-12-14 12:54:38 51°33.392 2°59.19 17.53 0.023788 0.151844 0.496866
2009-12-14 12:55:38 51°33.23 2°59.267 17.5275 0.024405 0.155874 0.496866
2009-12-14 12:56:38 51°33.07 2°59.343 17.5474 0.024508 0.156548 0.496866
2009-12-14 12:57:38 51°32.907 2°59.427 17.5644 0.024508 0.156582 0.53169
2009-12-14 12:58:38 51°32.742 2°59.52 17.5166 0.023685 0.151244 0.53169
2009-12-14 12:59:38 51°32.577 2°59.609 17.5533 0.023685 0.151231 0.53169
2009-12-14 13:00:38 51°32.412 2°59.676 17.5592 0.024303 0.155238 0.53169
2009-12-14 13:01:38 51°32.244 2°59.693 17.5764 0.025435 0.162583 0.53169
2009-12-14 13:02:38 51°32.08 2°59.685 17.5931 0.025023 0.159926 0.53169
2009-12-14 13:03:38 51°31.919 2°59.636 17.5742 0.02492 0.159257 0.53169
2009-12-14 13:04:38 51°31.757 2°59.594 17.5881 0.024405 0.155923 0.53169
2009-12-14 13:05:38 51°31.593 2°59.548 17.5734 0.024405 0.155936 0.53169
2009-12-14 13:06:38 51°31.427 2°59.504 17.6266 0.024405 0.155943 0.53169
2009-12-14 13:07:38 51°31.261 2°59.46 17.5868 0.025229 0.161312 0.53169
2009-12-14 13:08:38 51°31.094 2°59.403 17.6172 0.024817 0.158618 0.53169
2009-12-14 13:09:38 51°30.929 2°59.33 17.6421 0.024405 0.155956 0.53169
2009-12-14 13:10:38 51°30.767 2°59.257 17.6136 0.024097 0.153935 0.53169
2009-12-14 13:11:38 51°30.603 2°59.181 17.6402 0.025743 0.16468 0.566514
2009-12-14 13:12:38 51°30.44 2°59.099 17.6665 0.026052 0.166706 0.53169
2009-12-14 13:13:38 51°30.279 2°59.015 17.642 0.02492 0.15927 0.53169
2009-12-14 13:14:38 51°30.119 2°58.933 17.6772 0.024405 0.15592 0.53169
2009-12-14 13:15:38 51°29.956 2°58.854 17.688 0.023788 0.151921 0.53169
2009-12-14 13:16:38 51°29.794 2°58.777 17.6674 0.0242 0.154593 0.53169
2009-12-14 13:17:38 51°29.633 2°58.697 17.6749 0.024817 0.158625 0.53169
2009-12-14 13:18:38 51°29.473 2°58.615 17.6781 0.025537 0.163381 0.53169
2009-12-14 13:19:38 51°29.312 2°58.535 17.7101 0.025537 0.163346 0.53169
2009-12-14 13:20:38 51°29.149 2°58.452 17.6859 0.02492 0.159341 0.53169
2009-12-14 13:21:38 51°28.987 2°58.368 17.7463 0.026464 0.169426 0.53169
2009-12-14 13:22:38 51°28.824 2°58.289 17.7239 0.024714 0.157986 0.53169
2009-12-14 13:23:38 51°28.661 2°58.205 17.72 0.02492 0.159348 0.53169
2009-12-14 13:24:38 51°28.497 2°58.12 17.7066 0.024405 0.155999 0.53169
2009-12-14 13:25:38 51°28.332 2°58.035 17.6901 0.024817 0.158739 0.53169
2009-12-14 13:26:38 51°28.168 2°57.952 17.7504 0.025537 0.163378 0.53169
2009-12-14 13:27:38 51°28.003 2°57.87 17.7664 0.025743 0.164725 0.53169
2009-12-14 13:28:38 51°27.839 2°57.782 17.773 0.025023 0.160028 0.53169
2009-12-14 13:29:38 51°27.674 2°57.69 17.7716 0.023891 0.152653 0.53169
2009-12-14 13:30:38 51°27.51 2°57.606 17.7784 0.023891 0.152666 0.496866
2009-12-14 13:31:38 51°27.344 2°57.519 17.7685 0.024611 0.157357 0.53169
2009-12-14 13:32:38 51°27.179 2°57.427 17.8076 0.02492 0.159378 0.53169
2009-12-14 13:33:38 51°27.014 2°57.338 17.7605 0.024097 0.154023 0.53169
2009-12-14 13:34:38 51°26.85 2°57.248 17.8123 0.025126 0.160728 0.53169
2009-12-14 13:35:38 51°26.687 2°57.152 17.8087 0.024611 0.15738 0.53169
2009-12-14 13:36:38 51°26.524 2°57.055 17.7807 0.024714 0.158053 0.496866
2009-12-14 13:37:38 51°26.362 2°56.964 17.8009 0.024508 0.156721 0.496866
2009-12-14 13:38:38 51°26.2 2°56.872 17.8367 0.025023 0.160065 0.53169
2009-12-14 13:39:38 51°26.039 2°56.781 17.7955 0.024611 0.157404 0.53169
2009-12-14 13:40:38 51°25.876 2°56.69 17.8654 0.025023 0.160096 0.53169
2009-12-14 13:41:38 51°25.714 2°56.599 17.8189 0.024097 0.154036 0.53169
2009-12-14 13:42:38 51°25.551 2°56.508 17.8116 0.024611 0.157407 0.496866
2009-12-14 13:43:38 51°25.386 2°56.418 17.8526 0.026464 0.169502 0.496866
2009-12-14 13:44:38 51°25.221 2°56.331 17.8578 0.023891 0.15267 0.496866
2009-12-14 13:45:38 51°25.053 2°56.243 17.8683 0.024817 0.158719 0.496866
2009-12-14 13:46:38 51°24.885 2°56.155 17.8734 0.024714 0.15805 0.496866
2009-12-14 13:47:38 51°24.717 2°56.065 17.8626 0.023685 0.151359 0.496866
2009-12-14 13:48:38 51°24.551 2°55.967 17.8897 0.02492 0.159412 0.496866
2009-12-14 13:49:38 51°24.384 2°55.872 17.8938 0.0242 0.154711 0.496866
2009-12-14 13:50:38 51°24.216 2°55.785 17.8946 0.024508 0.156731 0.496866
2009-12-14 13:51:38 51°24.05 2°55.69 17.8374 0.023891 0.152724 0.496866
2009-12-14 13:52:38 51°23.883 2°55.6 17.8976 0.024097 0.154049 0.496866
2009-12-14 13:53:38 51°23.718 2°55.517 17.9201 0.024303 0.155393 0.496866
2009-12-14 13:54:38 51°23.55 2°55.434 17.8776 0.024303 0.155396 0.496866
2009-12-14 13:55:38 51°23.382 2°55.359 17.8673 0.024303 0.15538 0.496866
2009-12-14 13:56:38 51°23.214 2°55.282 17.9245 0.024817 0.158766 0.496866
2009-12-14 13:57:38 51°23.045 2°55.204 17.8912 0.024097 0.154049 0.462042
2009-12-14 13:58:38 51°22.873 2°55.123 17.9384 0.025126 0.160766 0.496866
2009-12-14 13:59:38 51°22.702 2°55.033 17.9186 0.024817 0.158743 0.462042
2009-12-14 14:00:38 51°22.531 2°54.939 17.9388 0.025229 0.161422 0.496866
2009-12-14 14:01:38 51°22.362 2°54.839 17.9472 0.024303 0.155389 0.496866
2009-12-14 14:02:38 51°22.195 2°54.74 17.9296 0.024303 0.155413 0.496866
2009-12-14 14:03:38 51°22.027 2°54.641 17.9598 0.024817 0.15877 0.496866
2009-12-14 14:04:38 51°21.858 2°54.546 17.8931 0.0242 0.154737 0.496866
2009-12-14 14:05:38 51°21.692 2°54.449 17.9917 0.024303 0.155432 0.462042
2009-12-14 14:06:38 51°21.528 2°54.353 17.9301 0.025023 0.160143 0.462042
2009-12-14 14:07:38 51°21.363 2°54.254 17.9355 0.02492 0.159426 0.496866
2009-12-14 14:08:38 51°21.197 2°54.156 17.9407 0.024611 0.157404 0.462042
2009-12-14 14:09:38 51°21.028 2°54.059 17.9337 0.024508 0.156761 0.462042
2009-12-14 14:10:38 51°20.86 2°53.958 17.9312 0.0242 0.15474 0.462042
2009-12-14 14:11:38 51°20.69 2°53.853 17.9016 0.023891 0.152747 0.462042
2009-12-14 14:12:38 51°20.518 2°53.749 17.9673 0.024508 0.156758 0.462042
2009-12-14 14:13:38 51°20.347 2°53.642 17.9846 0.024405 0.156078 0.462042
2009-12-14 14:14:38 51°20.175 2°53.54 17.9367 0.024097 0.154071 0.462042
2009-12-14 14:15:38 51°20.002 2°53.436 18.0174 0.02492 0.159436 0.462042
2009-12-14 14:16:38 51°19.829 2°53.332 17.9684 0.0242 0.15474 0.462042
2009-12-14 14:17:38 51°19.655 2°53.232 18.0101 0.024405 0.156068 0.462042
2009-12-14 14:18:38 51°19.481 2°53.131 18.009 0.0242 0.154724 0.462042
2009-12-14 14:19:38 51°19.309 2°53.027 18.0256 0.0242 0.154724 0.462042
2009-12-14 14:20:38 51°19.137 2°52.923 18.0045 0.024508 0.156758 0.462042
2009-12-14 14:21:38 51°18.965 2°52.825 18.0169 0.023994 0.153409 0.462042
2009-12-14 14:22:38 51°18.792 2°52.726 18.0226 0.024714 0.158113 0.462042
2009-12-14 14:23:38 51°18.62 2°52.625 18.0176 0.024817 0.158793 0.462042
2009-12-14 14:24:38 51°18.45 2°52.515 17.9467 0.024097 0.154075 0.462042
2009-12-14 14:25:38 51°18.277 2°52.408 18.0156 0.025126 0.160793 0.462042
2009-12-14 14:26:38 51°18.105 2°52.306 17.9619 0.023994 0.15339 0.462042
2009-12-14 14:27:38 51°17.931 2°52.199 18.0172 0.024817 0.158746 0.462042
2009-12-14 14:28:38 51°17.754 2°52.141 17.9907 0.024097 0.154058 0.462042
2009-12-14 14:29:38 51°17.571 2°52.101 18.0193 0.024303 0.155399 0.462042
2009-12-14 14:30:38 51°17.386 2°52.057 17.97 0.023788 0.152072 0.462042
2009-12-14 14:31:38 51°17.201 2°52.045 17.9651 0.023994 0.153406 0.462042
2009-12-14 14:32:38 51°17.035 2°52.161 17.9732 0.023171 0.14798 0.462042
2009-12-14 14:33:38 51°16.876 2°52.304 17.9904 0.023479 0.150049 0.462042
2009-12-14 14:34:38 51°16.709 2°52.425 18.0366 0.023479 0.150045 0.462042
2009-12-14 14:35:38 51°16.539 2°52.539 17.9697 0.023171 0.148036 0.462042
2009-12-14 14:36:38 51°16.368 2°52.655 18.0472 0.023788 0.152066 0.462042
2009-12-14 14:37:38 51°16.2 2°52.785 18.012 0.023068 0.147322 0.462042
2009-12-14 14:38:38 51°16.031 2°52.91 17.9883 0.023788 0.152053 0.462042
2009-12-14 14:39:38 51°15.861 2°53.033 17.9901 0.023068 0.147325 0.462042
2009-12-14 14:40:38 51°15.691 2°53.154 18.0148 0.023068 0.147319 0.462042
2009-12-14 14:41:38 51°15.521 2°53.271 18.0576 0.023891 0.152692 0.462042
2009-12-14 14:42:38 51°15.351 2°53.39 17.9883 0.023068 0.147316 0.496866
2009-12-14 14:43:38 51°15.178 2°53.502 18.0633 0.023582 0.150656 0.496866
2009-12-14 14:44:38 51°15.029 2°53.666 18.0127 0.023171 0.147952 0.462042
2009-12-14 14:45:38 51°14.897 2°53.865 18.0362 0.023068 0.147267 0.496866
2009-12-14 14:46:38 51°14.782 2°54.089 18.0172 0.023068 0.147282 0.496866
2009-12-14 14:47:38 51°14.668 2°54.317 18.0128 0.023582 0.150624 0.462042
2009-12-14 14:48:38 51°14.561 2°54.546 18.0086 0.023582 0.150704 0.496866
2009-12-14 14:49:38 51°14.454 2°54.772 18.0376 0.0242 0.154799 0.496866
2009-12-14 14:50:38 51°14.36 2°55.016 18.0318 0.023479 0.150074 0.496866
2009-12-14 14:51:38 51°14.259 2°55.246 18.0338 0.023171 0.148061 0.496866
2009-12-14 14:52:38 51°14.137 2°55.406 18.0441 0.023891 0.152747 0.496866
2009-12-14 14:53:38 51°14.005 2°55.503 18.0135 0.023068 0.147415 0.496866
2009-12-14 14:54:38 51°13.906 2°55.571 18.0508 0.023376 0.14945 0.496866
2009-12-14 14:55:42 51°13.794 2°55.664 18.0405 0.023685 0.15149 0.496866
2009-12-14 14:56:42 51°13.725 2°55.77 18.0543 0.023685 0.151461 0.496866
2009-12-14 14:57:42 51°13.687 2°55.857 18.0688 0.023891 0.152821 0.496866
2009-12-14 14:58:42 51°13.666 2°55.934 18.0676 0.023788 0.15214 0.496866
2009-12-14 14:59:42 51°13.662 2°55.952 18.074 0.024097 0.154173 0.496866